Byron, Minnesota
Current Conditions -  °F | °C
As of 1:13 PM on Monday 20 Oct 2014 (Local Time) from K9MN Reporting Station
Clear Clear  
Wind Chill: 60°   Ceiling: Unl
Heat Index: 60°   Visibility: 10mi
Dew Point: 39°   Wind: 8mph
Humidity: 47%   Direction: 300°WNW
Pressure: 29.96"   Gusts: 18mph
Location:  44.03°N, 92.65°W
Report Text: K9MN 201813Z AUTO 30007G16KT 10SM CLR 15/04 A2996 RMK AO1 T01540040
Loading
Personal Weather Stations






























Interactive Weather Map New forecast layout! Learn more

10-Day Weather Forecast

Advertisements
Track Severe Weather on mobile